Time,TemperatureF,DewpointF,PressureIn,WindDirection,WindDirectionDegrees,WindSpeedMPH,WindSpeedGustMPH,Humidity,HourlyPrecipIn,Conditions,Clouds,dailyrainin,SoftwareType,DateUTC
2013-06-04 00:01:00,67.4,66.5,29.29,WSW,251,2.3,2.3,97,0.00,RA,,0.00,WeatherDisplay:10.37,2013-06-04 04:01:00,
2013-06-04 00:02:00,67.4,66.5,29.29,WSW,251,0.0,0.0,97,0.00,RA,,0.00,WeatherDisplay:10.37,2013-06-04 04:02:00,
2013-06-04 00:07:00,67.4,66.5,29.29,WSW,251,0.0,0.4,97,0.00,RA,,0.00,WeatherDisplay:10.37,2013-06-04 04:07:00,
2013-06-04 00:12:00,67.3,66.4,29.29,WSW,251,2.3,2.3,97,0.00,CLR,,0.00,WeatherDisplay:10.37,2013-06-04 04:12:00,
2013-06-04 00:17:00,67.3,66.4,29.29,WSW,251,0.0,0.7,97,0.00,CLR,,0.00,WeatherDisplay:10.37,2013-06-04 04:17:00,
2013-06-04 00:22:00,67.3,66.7,29.29,WSW,251,2.3,0.0,98,0.00,CLR,,0.00,WeatherDisplay:10.37,2013-06-04 04:22:00,
2013-06-04 00:27:00,67.1,66.5,29.29,WSW,253,1.1,0.0,98,0.00,CLR,,0.00,WeatherDisplay:10.37,2013-06-04 04:27:00,
2013-06-04 00:32:00,67.1,66.5,29.29,WSW,254,0.0,0.0,98,0.00,CLR,,0.00,WeatherDisplay:10.37,2013-06-04 04:32:00,
2013-06-04 00:37:00,67.1,66.5,29.29,WSW,253,2.3,2.3,98,0.00,CLR,,0.00,WeatherDisplay:10.37,2013-06-04 04:37:00,
2013-06-04 00:42:00,67.1,66.5,29.30,WSW,253,3.5,3.5,98,0.00,CLR,,0.00,WeatherDisplay:10.37,2013-06-04 04:42:00,
2013-06-04 00:48:00,66.9,66.3,29.30,WSW,251,3.5,3.5,98,0.00,CLR,,0.00,WeatherDisplay:10.37,2013-06-04 04:48:00,
2013-06-04 00:53:00,66.9,66.3,29.30,WSW,247,3.5,0.0,98,0.00,CLR,,0.00,WeatherDisplay:10.37,2013-06-04 04:53:00,
2013-06-04 00:58:00,66.9,66.3,29.30,SW,226,4.0,4.0,98,0.00,CLR,,0.00,WeatherDisplay:10.37,2013-06-04 04:58:00,
2013-06-04 01:03:00,66.8,66.2,29.30,SW,226,0.0,0.0,98,0.00,CLR,,0.00,WeatherDisplay:10.37,2013-06-04 05:03:00,
2013-06-04 01:08:00,66.8,66.2,29.30,SW,226,0.0,0.0,98,0.00,CLR,,0.00,WeatherDisplay:10.37,2013-06-04 05:08:00,
2013-06-04 01:13:00,66.8,66.2,29.30,SW,234,0.0,0.0,98,0.00,CLR,,0.00,WeatherDisplay:10.37,2013-06-04 05:13:00,
2013-06-04 01:18:00,66.6,66.0,29.30,SW,234,0.0,0.0,98,0.00,CLR,,0.00,WeatherDisplay:10.37,2013-06-04 05:18:00,
2013-06-04 01:23:00,66.6,66.0,29.30,SW,234,0.0,0.0,98,0.00,CLR,,0.00,WeatherDisplay:10.37,2013-06-04 05:23:00,
2013-06-04 01:28:00,66.4,65.8,29.31,SW,234,0.0,0.0,98,0.00,CLR,,0.00,WeatherDisplay:10.37,2013-06-04 05:28:00,
2013-06-04 01:33:00,66.4,65.8,29.31,SW,234,0.0,0.0,98,0.00,CLR,,0.00,WeatherDisplay:10.37,2013-06-04 05:33:00,
2013-06-04 01:38:00,66.4,65.8,29.31,SW,234,2.3,2.3,98,0.00,CLR,,0.00,WeatherDisplay:10.37,2013-06-04 05:38:00,
2013-06-04 01:43:00,66.4,66.1,29.31,SW,234,2.3,2.3,99,0.00,CLR,,0.00,WeatherDisplay:10.37,2013-06-04 05:43:00,
2013-06-04 01:48:00,66.4,66.1,29.31,SW,234,0.0,0.0,99,0.00,CLR,,0.00,WeatherDisplay:10.37,2013-06-04 05:48:00,
2013-06-04 01:53:00,66.4,66.1,29.31,SW,234,0.0,0.0,99,0.00,CLR,,0.00,WeatherDisplay:10.37,2013-06-04 05:53:00,
2013-06-04 01:58:00,66.3,66.0,29.31,SW,234,0.0,0.0,99,0.00,CLR,,0.00,WeatherDisplay:10.37,2013-06-04 05:58:00,
2013-06-04 02:03:00,66.3,66.0,29.31,SW,234,0.0,0.0,99,0.00,CLR,,0.00,WeatherDisplay:10.37,2013-06-04 06:03:00,
2013-06-04 02:08:00,66.3,66.0,29.31,SW,234,0.0,0.0,99,0.00,CLR,,0.00,WeatherDisplay:10.37,2013-06-04 06:08:00,
2013-06-04 02:13:00,66.1,65.8,29.31,SW,234,0.0,0.0,99,0.00,CLR,,0.00,WeatherDisplay:10.37,2013-06-04 06:13:00,
2013-06-04 02:18:00,66.1,65.8,29.31,North,354,0.0,0.0,99,0.00,CLR,,0.00,WeatherDisplay:10.37,2013-06-04 06:18:00,
2013-06-04 02:23:00,66.1,65.8,29.31,North,356,0.0,0.0,99,0.00,CLR,,0.00,WeatherDisplay:10.37,2013-06-04 06:23:00,
2013-06-04 02:28:00,66.1,65.8,29.31,North,356,0.0,0.0,99,0.00,CLR,,0.00,WeatherDisplay:10.37,2013-06-04 06:28:00,
2013-06-04 02:33:00,66.3,66.0,29.31,North,356,0.0,0.0,99,0.00,CLR,,0.00,WeatherDisplay:10.37,2013-06-04 06:33:00,
2013-06-04 02:38:00,66.4,66.1,29.31,North,356,0.0,0.0,99,0.00,CLR,,0.00,WeatherDisplay:10.37,2013-06-04 06:38:00,
2013-06-04 02:43:00,66.6,66.3,29.30,WNW,289,2.3,0.0,99,0.00,CLR,,0.00,WeatherDisplay:10.37,2013-06-04 06:43:00,
2013-06-04 02:48:00,66.6,66.3,29.30,WNW,289,0.0,0.0,99,0.00,CLR,,0.00,WeatherDisplay:10.37,2013-06-04 06:48:00,
2013-06-04 02:53:00,66.6,66.3,29.30,NNW,329,0.0,0.0,99,0.00,CLR,,0.00,WeatherDisplay:10.37,2013-06-04 06:53:00,
2013-06-04 02:58:00,66.8,66.5,29.30,NNW,332,2.3,0.0,99,0.00,CLR,,0.00,WeatherDisplay:10.37,2013-06-04 06:58:00,
2013-06-04 03:03:00,66.8,66.5,29.30,NNW,329,1.1,0.0,99,0.00,CLR,,0.00,WeatherDisplay:10.37,2013-06-04 07:03:00,
2013-06-04 03:08:00,66.8,66.5,29.30,NNW,336,3.5,3.5,99,0.00,CLR,,0.00,WeatherDisplay:10.37,2013-06-04 07:08:00,
2013-06-04 03:13:00,66.8,66.5,29.30,NNW,342,3.0,3.0,99,0.00,CLR,,0.00,WeatherDisplay:10.37,2013-06-04 07:13:00,
2013-06-04 03:18:00,66.8,66.5,29.30,NNW,342,1.1,1.4,99,0.00,CLR,,0.00,WeatherDisplay:10.37,2013-06-04 07:18:00,
2013-06-04 03:23:00,66.8,66.5,29.30,NNW,342,1.1,1.1,99,0.00,CLR,,0.00,WeatherDisplay:10.37,2013-06-04 07:23:00,
2013-06-04 03:28:00,66.8,66.5,29.29,NNW,342,3.5,3.5,99,0.00,CLR,,0.00,WeatherDisplay:10.37,2013-06-04 07:28:00,
2013-06-04 03:33:00,66.8,66.5,29.29,NNW,342,0.0,0.7,99,0.00,CLR,,0.00,WeatherDisplay:10.37,2013-06-04 07:33:00,
2013-06-04 03:38:00,66.8,66.5,29.29,NNW,342,1.1,1.1,99,0.00,CLR,,0.00,WeatherDisplay:10.37,2013-06-04 07:38:00,
2013-06-04 03:43:00,66.8,66.5,29.29,NNW,343,0.0,0.0,99,0.00,CLR,,0.00,WeatherDisplay:10.37,2013-06-04 07:43:00,
2013-06-04 03:48:00,66.8,66.5,29.29,NNW,340,4.6,0.0,99,0.00,CLR,,0.00,WeatherDisplay:10.37,2013-06-04 07:48:00,
2013-06-04 03:53:00,66.8,66.5,29.29,NE,48,2.3,2.3,99,0.00,CLR,,0.00,WeatherDisplay:10.37,2013-06-04 07:53:00,
2013-06-04 03:58:00,66.8,66.5,29.29,North,11,0.0,0.0,99,0.00,CLR,,0.00,WeatherDisplay:10.37,2013-06-04 07:58:00,
2013-06-04 04:03:00,66.8,66.5,29.29,North,8,0.0,0.0,99,0.00,CLR,,0.00,WeatherDisplay:10.37,2013-06-04 08:03:00,
2013-06-04 04:08:00,66.6,66.3,29.29,NNE,18,0.0,0.0,99,0.00,CLR,,0.00,WeatherDisplay:10.37,2013-06-04 08:08:00,
2013-06-04 04:13:00,66.6,66.3,29.29,NNE,20,0.0,0.0,99,0.00,CLR,,0.00,WeatherDisplay:10.37,2013-06-04 08:13:00,
2013-06-04 04:18:00,66.4,66.1,29.29,NNE,20,0.0,0.0,99,0.00,CLR,,0.00,WeatherDisplay:10.37,2013-06-04 08:18:00,
2013-06-04 04:23:00,66.4,66.1,29.29,NNE,21,1.1,0.0,99,0.00,CLR,,0.00,WeatherDisplay:10.37,2013-06-04 08:23:00,
2013-06-04 04:28:00,66.4,66.1,29.30,NNE,21,0.0,0.0,99,0.00,CLR,,0.00,WeatherDisplay:10.37,2013-06-04 08:28:00,
2013-06-04 04:33:00,66.3,66.0,29.30,NNE,16,1.1,0.0,99,0.00,CLR,,0.00,WeatherDisplay:10.37,2013-06-04 08:33:00,
2013-06-04 04:38:00,66.3,66.0,29.30,NNE,16,0.0,0.0,99,0.00,CLR,,0.00,WeatherDisplay:10.37,2013-06-04 08:38:00,
2013-06-04 04:43:00,66.1,65.8,29.30,NNE,16,0.0,0.0,99,0.00,CLR,,0.00,WeatherDisplay:10.37,2013-06-04 08:43:00,
2013-06-04 04:48:00,66.1,65.8,29.30,NNE,16,0.0,0.0,99,0.00,CLR,,0.00,WeatherDisplay:10.37,2013-06-04 08:48:00,
2013-06-04 04:53:00,66.0,65.7,29.30,NNE,16,0.0,0.0,99,0.00,CLR,,0.00,WeatherDisplay:10.37,2013-06-04 08:53:00,
2013-06-04 04:58:00,65.8,65.5,29.30,NE,34,3.5,3.5,99,0.00,CLR,,0.00,WeatherDisplay:10.37,2013-06-04 08:58:00,
2013-06-04 05:03:00,65.8,65.5,29.30,NNE,18,0.0,0.0,99,0.00,CLR,,0.00,WeatherDisplay:10.37,2013-06-04 09:03:00,
2013-06-04 05:08:00,65.8,65.5,29.30,NNE,13,0.0,0.0,99,0.00,CLR,,0.00,WeatherDisplay:10.37,2013-06-04 09:08:00,
2013-06-04 05:13:00,65.8,65.5,29.31,NE,40,0.0,0.0,99,0.00,CLR,,0.00,WeatherDisplay:10.37,2013-06-04 09:13:00,
2013-06-04 05:18:00,65.6,65.3,29.31,NE,40,0.0,0.0,99,0.00,CLR,,0.00,WeatherDisplay:10.37,2013-06-04 09:18:00,
2013-06-04 05:23:00,65.6,65.3,29.31,NE,40,0.0,0.0,99,0.00,CLR,,0.00,WeatherDisplay:10.37,2013-06-04 09:23:00,
2013-06-04 05:28:00,65.6,65.3,29.32,SE,141,0.0,0.0,99,0.00,CLR,,0.00,WeatherDisplay:10.37,2013-06-04 09:28:00,
2013-06-04 05:33:00,65.5,65.2,29.32,SE,141,0.0,0.0,99,0.00,CLR,,0.00,WeatherDisplay:10.37,2013-06-04 09:33:00,
2013-06-04 05:38:00,65.6,65.3,29.32,ENE,62,1.1,1.1,99,0.00,CLR,,0.00,WeatherDisplay:10.37,2013-06-04 09:38:00,
2013-06-04 05:43:00,65.6,65.3,29.32,ENE,62,0.0,0.0,99,0.00,CLR,,0.00,WeatherDisplay:10.37,2013-06-04 09:43:00,
2013-06-04 05:48:00,65.6,65.3,29.32,NE,56,0.0,0.0,99,0.00,CLR,,0.00,WeatherDisplay:10.37,2013-06-04 09:48:00,
2013-06-04 05:53:00,65.5,65.2,29.32,North,353,1.1,1.1,99,0.00,CLR,,0.00,WeatherDisplay:10.37,2013-06-04 09:53:00,
2013-06-04 05:58:00,65.3,65.0,29.33,North,354,0.0,0.0,99,0.00,CLR,,0.00,WeatherDisplay:10.37,2013-06-04 09:58:00,
2013-06-04 06:03:00,65.3,65.0,29.33,North,0,0.0,0.0,99,0.00,CLR,,0.00,WeatherDisplay:10.37,2013-06-04 10:03:00,
2013-06-04 06:08:00,65.3,65.0,29.33,NE,41,0.0,0.0,99,0.00,CLR,,0.00,WeatherDisplay:10.37,2013-06-04 10:08:00,
2013-06-04 06:13:00,65.2,64.9,29.34,NE,40,0.0,0.0,99,0.00,CLR,,0.00,WeatherDisplay:10.37,2013-06-04 10:13:00,
2013-06-04 06:18:00,65.2,64.9,29.34,NE,38,3.5,3.5,99,0.00,CLR,,0.00,WeatherDisplay:10.37,2013-06-04 10:18:00,
2013-06-04 06:23:00,65.0,64.7,29.34,NNW,328,3.5,3.5,99,0.00,CLR,,0.00,WeatherDisplay:10.37,2013-06-04 10:23:00,
2013-06-04 06:28:00,65.2,64.9,29.35,North,8,4.6,4.6,99,0.00,CLR,,0.00,WeatherDisplay:10.37,2013-06-04 10:28:00,
2013-06-04 06:33:00,65.2,64.9,29.35,NNE,31,0.0,0.0,99,0.00,CLR,,0.00,WeatherDisplay:10.37,2013-06-04 10:33:00,
2013-06-04 06:38:00,65.0,64.7,29.35,NNE,21,3.5,3.5,99,0.00,CLR,,0.00,WeatherDisplay:10.37,2013-06-04 10:38:00,
2013-06-04 06:43:00,65.0,64.7,29.35,NE,47,0.0,0.0,99,0.00,CLR,,0.00,WeatherDisplay:10.37,2013-06-04 10:43:00,
2013-06-04 06:48:00,65.0,64.7,29.35,NNE,28,0.0,0.0,99,0.00,CLR,,0.00,WeatherDisplay:10.37,2013-06-04 10:48:00,
2013-06-04 06:53:00,65.2,64.9,29.35,North,10,2.3,2.3,99,0.00,CLR,,0.00,WeatherDisplay:10.37,2013-06-04 10:53:00,
2013-06-04 06:58:00,65.2,64.9,29.36,East,85,2.3,2.3,99,0.00,CLR,,0.00,WeatherDisplay:10.37,2013-06-04 10:58:00,
2013-06-04 07:03:00,65.2,65.2,29.36,NNE,16,1.1,0.0,100,0.00,CLR,,0.00,WeatherDisplay:10.37,2013-06-04 11:03:00,
2013-06-04 07:08:00,65.2,64.9,29.36,ENE,72,0.0,0.0,99,0.00,CLR,,0.00,WeatherDisplay:10.37,2013-06-04 11:08:00,
2013-06-04 07:13:00,65.3,65.3,29.36,North,6,5.8,5.8,100,0.00,CLR,,0.00,WeatherDisplay:10.37,2013-06-04 11:13:00,
2013-06-04 07:18:00,65.5,65.2,29.36,ENE,62,6.9,6.9,99,0.00,CLR,,0.00,WeatherDisplay:10.37,2013-06-04 11:18:00,
2013-06-04 07:23:00,65.6,65.6,29.36,NNE,18,3.5,3.5,100,0.00,CLR,,0.00,WeatherDisplay:10.37,2013-06-04 11:23:00,
2013-06-04 07:28:00,65.5,65.2,29.37,NE,38,0.0,0.0,99,0.00,CLR,,0.00,WeatherDisplay:10.37,2013-06-04 11:28:00,
2013-06-04 07:33:00,65.6,65.3,29.37,NE,47,3.5,3.5,99,0.00,CLR,,0.00,WeatherDisplay:10.37,2013-06-04 11:33:00,
2013-06-04 07:38:00,65.6,65.3,29.37,ENE,69,10.4,10.4,99,0.00,CLR,,0.00,WeatherDisplay:10.37,2013-06-04 11:38:00,
2013-06-04 07:43:00,65.6,65.3,29.37,NNE,31,3.5,3.5,99,0.00,CLR,,0.00,WeatherDisplay:10.37,2013-06-04 11:43:00,
2013-06-04 07:48:00,65.5,65.2,29.37,East,89,0.0,0.0,99,0.00,CLR,,0.00,WeatherDisplay:10.37,2013-06-04 11:48:00,
2013-06-04 07:53:00,65.6,65.3,29.37,NE,42,0.0,0.0,99,0.00,CLR,,0.00,WeatherDisplay:10.37,2013-06-04 11:53:00,
2013-06-04 07:58:00,65.8,65.5,29.38,NE,47,3.5,3.5,99,0.00,CLR,,0.00,WeatherDisplay:10.37,2013-06-04 11:58:00,
2013-06-04 08:03:00,65.8,65.5,29.38,ESE,120,0.0,0.0,99,0.00,CLR,,0.00,WeatherDisplay:10.37,2013-06-04 12:03:00,
2013-06-04 08:08:00,65.8,65.5,29.38,East,95,0.0,0.0,99,0.00,CLR,,0.00,WeatherDisplay:10.37,2013-06-04 12:08:00,
2013-06-04 08:13:00,65.8,65.2,29.38,NE,44,3.5,3.5,98,0.00,CLR,,0.00,WeatherDisplay:10.37,2013-06-04 12:13:00,
2013-06-04 08:18:00,66.1,65.2,29.38,North,7,1.1,1.1,97,0.00,CLR,,0.00,WeatherDisplay:10.37,2013-06-04 12:18:00,
2013-06-04 08:23:00,66.1,64.9,29.38,North,0,1.1,1.1,96,0.00,CLR,,0.00,WeatherDisplay:10.37,2013-06-04 12:23:00,
2013-06-04 08:28:00,66.3,65.1,29.38,NE,51,4.6,4.6,96,0.00,CLR,,0.00,WeatherDisplay:10.37,2013-06-04 12:28:00,
2013-06-04 08:33:00,66.3,64.5,29.38,NNE,32,1.1,0.0,94,0.00,CLR,,0.00,WeatherDisplay:10.37,2013-06-04 12:33:00,
2013-06-04 08:38:00,66.4,64.0,29.38,ENE,72,2.3,0.0,92,0.00,CLR,,0.00,WeatherDisplay:10.37,2013-06-04 12:38:00,
2013-06-04 08:43:00,66.9,63.9,29.39,East,82,5.8,5.8,90,0.00,CLR,,0.00,WeatherDisplay:10.37,2013-06-04 12:43:00,
2013-06-04 08:48:00,67.3,63.3,29.39,NNE,23,5.8,5.8,87,0.00,CLR,,0.00,WeatherDisplay:10.37,2013-06-04 12:48:00,
2013-06-04 08:53:00,67.4,62.4,29.39,ENE,75,11.5,11.5,84,0.00,CLR,,0.00,WeatherDisplay:10.37,2013-06-04 12:53:00,
2013-06-04 08:58:00,67.8,62.8,29.39,ENE,59,5.8,5.8,84,0.00,CLR,,0.00,WeatherDisplay:10.37,2013-06-04 12:58:00,
2013-06-04 09:03:00,68.4,62.7,29.39,ENE,78,1.1,1.1,82,0.00,CLR,,0.00,WeatherDisplay:10.37,2013-06-04 13:03:00,
2013-06-04 09:08:00,69.3,62.5,29.39,ENE,59,0.0,0.0,79,0.00,CLR,,0.00,WeatherDisplay:10.37,2013-06-04 13:08:00,
2013-06-04 09:13:00,70.1,62.2,29.39,NE,35,6.9,6.9,76,0.00,CLR,,0.00,WeatherDisplay:10.37,2013-06-04 13:13:00,
2013-06-04 09:18:00,70.3,62.0,29.39,ESE,102,3.5,3.5,75,0.00,CLR,,0.00,WeatherDisplay:10.37,2013-06-04 13:18:00,
2013-06-04 09:23:00,70.6,61.1,29.39,NNE,21,5.8,5.8,72,0.00,CLR,,0.00,WeatherDisplay:10.37,2013-06-04 13:23:00,
2013-06-04 09:28:00,70.6,61.5,29.40,NE,35,2.3,2.3,73,0.00,CLR,,0.00,WeatherDisplay:10.37,2013-06-04 13:28:00,
2013-06-04 09:33:00,70.9,60.6,29.40,ENE,65,6.9,6.9,70,0.00,CLR,,0.00,WeatherDisplay:10.37,2013-06-04 13:33:00,
2013-06-04 09:38:00,71.1,60.0,29.40,NE,48,6.9,6.9,68,0.00,CLR,,0.00,WeatherDisplay:10.37,2013-06-04 13:38:00,
2013-06-04 09:43:00,71.1,60.4,29.40,North,3,3.5,3.5,69,0.00,CLR,,0.00,WeatherDisplay:10.37,2013-06-04 13:43:00,
2013-06-04 09:48:00,71.3,59.4,29.40,East,88,5.8,5.8,66,0.00,CLR,,0.00,WeatherDisplay:10.37,2013-06-04 13:48:00,
2013-06-04 09:53:00,71.6,59.6,29.40,NNE,13,2.3,2.3,66,0.00,CLR,,0.00,WeatherDisplay:10.37,2013-06-04 13:53:00,
2013-06-04 09:58:00,72.0,59.6,29.41,NE,38,4.6,4.6,65,0.00,CLR,,0.00,WeatherDisplay:10.37,2013-06-04 13:58:00,
2013-06-04 10:03:00,72.1,60.1,29.41,NNE,18,2.3,0.0,66,0.00,CLR,,0.00,WeatherDisplay:10.37,2013-06-04 14:03:00,
2013-06-04 10:08:00,71.8,59.0,29.41,NNE,16,0.0,1.2,64,0.00,CLR,,0.00,WeatherDisplay:10.37,2013-06-04 14:08:00,
2013-06-04 10:13:00,71.3,58.5,29.41,ENE,72,0.0,0.1,64,0.00,CLR,,0.00,WeatherDisplay:10.37,2013-06-04 14:13:00,
2013-06-04 10:18:00,71.5,59.1,29.41,ENE,69,5.8,5.8,65,0.00,CLR,,0.00,WeatherDisplay:10.37,2013-06-04 14:18:00,
2013-06-04 10:23:00,71.6,58.8,29.41,NE,51,6.9,6.9,64,0.00,CLR,,0.00,WeatherDisplay:10.37,2013-06-04 14:23:00,
2013-06-04 10:28:00,71.8,59.0,29.41,NNE,32,5.8,5.8,64,0.00,CLR,,0.00,WeatherDisplay:10.37,2013-06-04 14:28:00,
2013-06-04 10:33:00,71.8,58.5,29.41,NNE,31,2.3,2.3,63,0.00,CLR,,0.00,WeatherDisplay:10.37,2013-06-04 14:33:00,
2013-06-04 10:38:00,71.8,59.4,29.41,NNE,23,3.5,0.0,65,0.00,CLR,,0.00,WeatherDisplay:10.37,2013-06-04 14:38:00,
2013-06-04 10:43:00,71.6,58.8,29.42,NE,38,5.8,5.8,64,0.00,CLR,,0.00,WeatherDisplay:10.37,2013-06-04 14:43:00,
2013-06-04 10:48:00,71.3,58.5,29.42,NE,51,2.3,0.0,64,0.00,CLR,,0.00,WeatherDisplay:10.37,2013-06-04 14:48:00,
2013-06-04 10:53:00,71.1,59.2,29.42,North,1,6.9,6.9,66,0.00,CLR,,0.00,WeatherDisplay:10.37,2013-06-04 14:53:00,
2013-06-04 10:58:00,70.9,59.4,29.42,North,6,1.1,1.1,67,0.00,CLR,,0.00,WeatherDisplay:10.37,2013-06-04 14:58:00,
2013-06-04 11:03:00,70.8,58.9,29.42,NE,48,1.1,1.1,66,0.00,CLR,,0.00,WeatherDisplay:10.37,2013-06-04 15:03:00,
2013-06-04 11:08:00,70.9,59.4,29.42,NE,48,0.0,0.0,67,0.00,CLR,,0.00,WeatherDisplay:10.37,2013-06-04 15:08:00,
2013-06-04 11:13:00,70.9,59.4,29.43,NE,48,0.0,0.0,67,0.00,CLR,,0.00,WeatherDisplay:10.37,2013-06-04 15:13:00,
2013-06-04 11:18:00,71.1,59.6,29.43,NE,48,0.0,0.0,67,0.00,CLR,,0.00,WeatherDisplay:10.37,2013-06-04 15:18:00,
2013-06-04 11:23:00,71.6,60.5,29.43,NE,48,0.0,0.0,68,0.00,CLR,,0.00,WeatherDisplay:10.37,2013-06-04 15:23:00,
2013-06-04 11:28:00,72.1,60.5,29.43,NE,45,0.0,0.0,67,0.00,CLR,,0.00,WeatherDisplay:10.37,2013-06-04 15:28:00,
2013-06-04 11:33:00,72.5,59.6,29.43,NNE,20,4.6,0.0,64,0.00,CLR,,0.00,WeatherDisplay:10.37,2013-06-04 15:33:00,
2013-06-04 11:38:00,72.8,59.9,29.43,North,0,1.0,1.0,64,0.00,CLR,,0.00,WeatherDisplay:10.37,2013-06-04 15:38:00,
2013-06-04 11:43:00,72.7,58.5,29.44,ESE,119,2.3,0.0,61,0.00,CLR,,0.00,WeatherDisplay:10.37,2013-06-04 15:43:00,
2013-06-04 11:48:00,72.8,59.9,29.44,NE,54,0.0,0.0,64,0.00,CLR,,0.00,WeatherDisplay:10.37,2013-06-04 15:48:00,
2013-06-04 11:53:00,73.0,60.1,29.44,NNE,16,0.0,0.6,64,0.00,CLR,,0.00,WeatherDisplay:10.37,2013-06-04 15:53:00,
2013-06-04 11:58:00,73.2,58.9,29.44,NNE,24,0.0,0.0,61,0.00,CLR,,0.00,WeatherDisplay:10.37,2013-06-04 15:58:00,
2013-06-04 12:03:00,73.3,59.0,29.44,ENE,69,3.5,3.5,61,0.00,CLR,,0.00,WeatherDisplay:10.37,2013-06-04 16:03:00,
2013-06-04 12:08:00,73.2,58.5,29.44,North,4,6.9,6.9,60,0.00,CLR,,0.00,WeatherDisplay:10.37,2013-06-04 16:08:00,
2013-06-04 12:13:00,73.0,58.3,29.44,ENE,78,1.1,0.0,60,0.00,CLR,,0.00,WeatherDisplay:10.37,2013-06-04 16:13:00,
2013-06-04 12:18:00,73.0,59.2,29.44,ENE,78,0.0,0.0,62,0.00,CLR,,0.00,WeatherDisplay:10.37,2013-06-04 16:18:00,
2013-06-04 12:24:00,73.2,58.9,29.44,NE,56,0.0,0.0,61,0.00,CLR,,0.00,WeatherDisplay:10.37,2013-06-04 16:24:00,
2013-06-04 12:29:00,73.3,59.0,29.44,ENE,58,0.0,0.0,61,0.00,CLR,,0.00,WeatherDisplay:10.37,2013-06-04 16:29:00,
2013-06-04 12:34:00,73.9,60.5,29.44,NNE,18,3.0,3.0,63,0.00,CLR,,0.00,WeatherDisplay:10.37,2013-06-04 16:34:00,
2013-06-04 12:39:00,74.0,59.2,29.44,North,3,8.1,8.1,60,0.00,CLR,,0.00,WeatherDisplay:10.37,2013-06-04 16:39:00,
2013-06-04 12:44:00,73.9,59.6,29.43,North,356,0.0,0.1,61,0.00,CLR,,0.00,WeatherDisplay:10.37,2013-06-04 16:44:00,
2013-06-04 12:49:00,73.9,59.6,29.43,North,359,0.0,0.0,61,0.00,CLR,,0.00,WeatherDisplay:10.37,2013-06-04 16:49:00,
2013-06-04 12:54:00,73.7,59.4,29.43,North,1,5.8,5.8,61,0.00,CLR,,0.00,WeatherDisplay:10.37,2013-06-04 16:54:00,
2013-06-04 12:59:00,73.9,60.1,29.43,NNE,17,3.5,0.0,62,0.00,CLR,,0.00,WeatherDisplay:10.37,2013-06-04 16:59:00,
2013-06-04 13:04:00,74.0,59.2,29.43,NE,34,0.0,1.9,60,0.00,CLR,,0.00,WeatherDisplay:10.37,2013-06-04 17:04:00,
2013-06-04 13:09:00,74.2,59.4,29.43,NE,40,0.0,0.0,60,0.00,CLR,,0.00,WeatherDisplay:10.37,2013-06-04 17:09:00,
2013-06-04 13:14:00,74.4,59.1,29.43,ENE,59,1.1,0.0,59,0.00,CLR,,0.00,WeatherDisplay:10.37,2013-06-04 17:14:00,
2013-06-04 13:19:00,74.4,60.1,29.43,NNE,28,5.8,5.8,61,0.00,CLR,,0.00,WeatherDisplay:10.37,2013-06-04 17:19:00,
2013-06-04 13:24:00,74.4,59.6,29.43,NE,34,0.0,0.1,60,0.00,CLR,,0.00,WeatherDisplay:10.37,2013-06-04 17:24:00,
2013-06-04 13:29:00,74.2,60.3,29.43,NE,55,2.3,0.0,62,0.00,CLR,,0.00,WeatherDisplay:10.37,2013-06-04 17:29:00,
2013-06-04 13:34:00,74.2,60.3,29.43,NE,55,0.0,0.0,62,0.00,CLR,,0.00,WeatherDisplay:10.37,2013-06-04 17:34:00,
2013-06-04 13:39:00,74.2,60.8,29.43,NE,55,0.0,0.0,63,0.00,CLR,,0.00,WeatherDisplay:10.37,2013-06-04 17:39:00,
2013-06-04 13:44:00,74.4,62.3,29.43,ENE,65,0.0,0.1,66,0.00,CLR,,0.00,WeatherDisplay:10.37,2013-06-04 17:44:00,
2013-06-04 13:49:00,74.4,61.9,29.43,ENE,65,0.0,0.0,65,0.00,CLR,,0.00,WeatherDisplay:10.37,2013-06-04 17:49:00,
2013-06-04 13:54:00,74.6,60.7,29.43,ENE,65,0.0,0.0,62,0.00,CLR,,0.00,WeatherDisplay:10.37,2013-06-04 17:54:00,
2013-06-04 13:59:00,74.7,62.1,29.42,ENE,65,0.0,0.0,65,0.00,CLR,,0.00,WeatherDisplay:10.37,2013-06-04 17:59:00,
2013-06-04 14:04:00,74.7,61.3,29.42,NE,42,0.0,1.0,63,0.00,CLR,,0.00,WeatherDisplay:10.37,2013-06-04 18:04:00,
2013-06-04 14:09:00,74.7,60.8,29.42,NNE,30,3.5,3.5,62,0.00,CLR,,0.00,WeatherDisplay:10.37,2013-06-04 18:09:00,
2013-06-04 14:14:00,74.9,61.9,29.42,NE,40,1.1,1.1,64,0.00,CLR,,0.00,WeatherDisplay:10.37,2013-06-04 18:14:00,
2013-06-04 14:19:00,74.9,61.0,29.42,NE,40,0.0,0.0,62,0.00,CLR,,0.00,WeatherDisplay:10.37,2013-06-04 18:19:00,
2013-06-04 14:24:00,75.1,61.2,29.42,NW,325,1.1,0.0,62,0.00,CLR,,0.00,WeatherDisplay:10.37,2013-06-04 18:24:00,
2013-06-04 14:29:00,75.3,62.3,29.42,East,88,0.0,0.0,64,0.00,CLR,,0.00,WeatherDisplay:10.37,2013-06-04 18:29:00,
2013-06-04 14:34:00,75.1,61.6,29.42,NE,37,4.6,4.6,63,0.00,CLR,,0.00,WeatherDisplay:10.37,2013-06-04 18:34:00,
2013-06-04 14:39:00,75.1,62.1,29.42,NE,37,0.0,0.0,64,0.00,CLR,,0.00,WeatherDisplay:10.37,2013-06-04 18:39:00,
2013-06-04 14:44:00,75.1,61.2,29.42,NE,34,1.1,1.5,62,0.00,CLR,,0.00,WeatherDisplay:10.37,2013-06-04 18:44:00,
2013-06-04 14:49:00,75.3,61.8,29.42,NNE,32,0.0,0.0,63,0.00,CLR,,0.00,WeatherDisplay:10.37,2013-06-04 18:49:00,
2013-06-04 14:54:00,75.6,60.7,29.42,NNE,32,0.0,0.0,60,0.00,CLR,,0.00,WeatherDisplay:10.37,2013-06-04 18:54:00,
2013-06-04 14:59:00,75.6,60.7,29.42,NE,40,0.0,1.2,60,0.00,CLR,,0.00,WeatherDisplay:10.37,2013-06-04 18:59:00,
2013-06-04 15:04:00,75.8,60.4,29.42,NE,38,0.0,0.0,59,0.00,CLR,,0.00,WeatherDisplay:10.37,2013-06-04 19:04:00,
2013-06-04 15:09:00,75.6,61.2,29.42,NE,38,0.0,0.0,61,0.00,CLR,,0.00,WeatherDisplay:10.37,2013-06-04 19:09:00,
2013-06-04 15:14:00,75.6,60.3,29.42,NE,38,0.0,0.0,59,0.00,CLR,,0.00,WeatherDisplay:10.37,2013-06-04 19:14:00,
2013-06-04 15:19:00,75.4,60.5,29.42,SE,131,0.0,0.0,60,0.00,CLR,,0.00,WeatherDisplay:10.37,2013-06-04 19:19:00,
2013-06-04 15:24:00,75.8,60.9,29.42,SE,131,0.0,0.0,60,0.00,CLR,,0.00,WeatherDisplay:10.37,2013-06-04 19:24:00,
2013-06-04 15:29:00,76.3,61.4,29.42,SE,130,0.0,0.0,60,0.00,CLR,,0.00,WeatherDisplay:10.37,2013-06-04 19:29:00,
2013-06-04 15:34:00,77.0,60.6,29.42,East,85,1.1,0.0,57,0.00,CLR,,0.00,WeatherDisplay:10.37,2013-06-04 19:34:00,
2013-06-04 15:39:00,77.6,59.6,29.42,North,359,3.5,4.5,54,0.00,CLR,,0.00,WeatherDisplay:10.37,2013-06-04 19:39:00,
2013-06-04 15:44:00,77.2,59.8,29.41,NE,47,6.9,0.0,55,0.00,CLR,,0.00,WeatherDisplay:10.37,2013-06-04 19:44:00,
2013-06-04 15:49:00,77.0,61.1,29.41,NNE,20,1.1,2.5,58,0.00,CLR,,0.00,WeatherDisplay:10.37,2013-06-04 19:49:00,
2013-06-04 15:54:00,77.0,59.1,29.41,NNE,21,0.0,0.0,54,0.00,CLR,,0.00,WeatherDisplay:10.37,2013-06-04 19:54:00,
2013-06-04 15:59:00,77.0,59.6,29.41,NNE,23,0.0,0.0,55,0.00,CLR,,0.00,WeatherDisplay:10.37,2013-06-04 19:59:00,
2013-06-04 16:04:00,77.2,59.8,29.41,NNW,337,0.0,1.8,55,0.00,CLR,,0.00,WeatherDisplay:10.37,2013-06-04 20:04:00,
2013-06-04 16:09:00,76.8,58.9,29.41,NE,37,0.0,0.0,54,0.00,CLR,,0.00,WeatherDisplay:10.37,2013-06-04 20:09:00,
2013-06-04 16:14:00,76.7,59.3,29.41,NE,44,0.0,0.1,55,0.00,CLR,,0.00,WeatherDisplay:10.37,2013-06-04 20:14:00,
2013-06-04 16:19:00,76.5,60.1,29.41,NE,54,0.0,0.0,57,0.00,CLR,,0.00,WeatherDisplay:10.37,2013-06-04 20:19:00,
2013-06-04 16:24:00,76.5,60.1,29.41,NE,54,0.0,0.0,57,0.00,CLR,,0.00,WeatherDisplay:10.37,2013-06-04 20:24:00,
2013-06-04 16:29:00,76.7,61.3,29.41,NE,54,0.0,0.0,59,0.00,CLR,,0.00,WeatherDisplay:10.37,2013-06-04 20:29:00,
2013-06-04 16:34:00,76.5,60.1,29.41,NE,54,0.0,0.0,57,0.00,CLR,,0.00,WeatherDisplay:10.37,2013-06-04 20:34:00,
2013-06-04 16:39:00,76.7,60.3,29.41,NE,54,0.0,0.0,57,0.00,CLR,,0.00,WeatherDisplay:10.37,2013-06-04 20:39:00,
2013-06-04 16:44:00,77.0,60.6,29.41,NE,54,0.0,0.0,57,0.00,CLR,,0.00,WeatherDisplay:10.37,2013-06-04 20:44:00,
2013-06-04 16:49:00,77.4,61.0,29.41,NE,54,0.0,0.0,57,0.00,CLR,,0.00,WeatherDisplay:10.37,2013-06-04 20:49:00,
2013-06-04 16:54:00,77.6,60.2,29.41,NE,54,0.0,0.0,55,0.00,CLR,,0.00,WeatherDisplay:10.37,2013-06-04 20:54:00,
2013-06-04 16:59:00,78.1,61.6,29.40,NE,54,0.0,0.0,57,0.00,CLR,,0.00,WeatherDisplay:10.37,2013-06-04 20:59:00,
2013-06-04 17:04:00,78.6,60.0,29.40,NNE,20,4.6,4.6,53,0.00,CLR,,0.00,WeatherDisplay:10.37,2013-06-04 21:04:00,
2013-06-04 17:09:00,78.8,60.2,29.40,North,356,1.1,1.1,53,0.00,CLR,,0.00,WeatherDisplay:10.37,2013-06-04 21:09:00,
2013-06-04 17:14:00,78.8,58.6,29.40,North,0,5.8,5.8,50,0.00,CLR,,0.00,WeatherDisplay:10.37,2013-06-04 21:14:00,
2013-06-04 17:19:00,78.8,60.2,29.40,North,0,0.0,0.0,53,0.00,CLR,,0.00,WeatherDisplay:10.37,2013-06-04 21:19:00,
2013-06-04 17:24:00,78.8,59.7,29.40,North,6,2.3,2.3,52,0.00,CLR,,0.00,WeatherDisplay:10.37,2013-06-04 21:24:00,
2013-06-04 17:29:00,78.6,59.5,29.40,NNE,13,0.0,0.0,52,0.00,CLR,,0.00,WeatherDisplay:10.37,2013-06-04 21:29:00,
2013-06-04 17:34:00,79.0,59.3,29.40,North,1,3.5,3.5,51,0.00,CLR,,0.00,WeatherDisplay:10.37,2013-06-04 21:34:00,
2013-06-04 17:39:00,79.4,59.1,29.40,NE,34,1.1,1.1,50,0.00,CLR,,0.00,WeatherDisplay:10.37,2013-06-04 21:39:00,
2013-06-04 17:44:00,79.6,59.3,29.40,NE,34,0.0,0.0,50,0.00,CLR,,0.00,WeatherDisplay:10.37,2013-06-04 21:44:00,
2013-06-04 17:49:00,79.0,59.9,29.40,NE,35,1.1,0.0,52,0.00,CLR,,0.00,WeatherDisplay:10.37,2013-06-04 21:49:00,
2013-06-04 17:54:00,78.5,60.5,29.40,NE,35,0.0,0.0,54,0.00,CLR,,0.00,WeatherDisplay:10.37,2013-06-04 21:54:00,
2013-06-04 17:59:00,78.6,61.1,29.40,NE,35,0.0,0.0,55,0.00,CLR,,0.00,WeatherDisplay:10.37,2013-06-04 21:59:00,
2013-06-04 18:04:00,78.8,60.7,29.40,NE,35,0.0,0.0,54,0.00,CLR,,0.00,WeatherDisplay:10.37,2013-06-04 22:04:00,
2013-06-04 18:09:00,78.6,61.6,29.40,NE,35,0.0,0.0,56,0.00,CLR,,0.00,WeatherDisplay:10.37,2013-06-04 22:09:00,
2013-06-04 18:14:00,78.8,61.3,29.40,NE,35,0.0,0.0,55,0.00,CLR,,0.00,WeatherDisplay:10.37,2013-06-04 22:14:00,
2013-06-04 18:19:00,78.8,61.8,29.40,NE,35,0.0,0.0,56,0.00,CLR,,0.00,WeatherDisplay:10.37,2013-06-04 22:19:00,
2013-06-04 18:24:00,78.6,63.1,29.40,NE,35,0.0,0.0,59,0.00,CLR,,0.00,WeatherDisplay:10.37,2013-06-04 22:24:00,
2013-06-04 18:29:00,78.3,63.3,29.40,NE,35,0.0,0.0,60,0.00,CLR,,0.00,WeatherDisplay:10.37,2013-06-04 22:29:00,
2013-06-04 18:34:00,77.9,63.4,29.40,NE,35,0.0,0.0,61,0.00,CLR,,0.00,WeatherDisplay:10.37,2013-06-04 22:34:00,
2013-06-04 18:39:00,77.7,63.6,29.40,NE,35,0.0,0.0,62,0.00,CLR,,0.00,WeatherDisplay:10.37,2013-06-04 22:39:00,
2013-06-04 18:44:00,77.6,63.5,29.39,NE,35,0.0,0.0,62,0.00,CLR,,0.00,WeatherDisplay:10.37,2013-06-04 22:44:00,
2013-06-04 18:49:00,77.4,62.9,29.39,NE,35,0.0,0.0,61,0.00,CLR,,0.00,WeatherDisplay:10.37,2013-06-04 22:49:00,
2013-06-04 18:54:00,77.4,63.4,29.39,NE,34,1.1,1.1,62,0.00,CLR,,0.00,WeatherDisplay:10.37,2013-06-04 22:54:00,
2013-06-04 18:59:00,77.4,63.8,29.39,NNE,24,5.0,5.0,63,0.00,CLR,,0.00,WeatherDisplay:10.37,2013-06-04 22:59:00,
2013-06-04 19:04:00,77.2,63.2,29.39,NE,47,0.0,0.0,62,0.00,CLR,,0.00,WeatherDisplay:10.37,2013-06-04 23:04:00,
2013-06-04 19:09:00,77.0,62.5,29.39,NE,47,0.0,0.0,61,0.00,CLR,,0.00,WeatherDisplay:10.37,2013-06-04 23:09:00,
2013-06-04 19:14:00,77.0,62.5,29.40,NE,47,0.0,0.0,61,0.00,CLR,,0.00,WeatherDisplay:10.37,2013-06-04 23:14:00,
2013-06-04 19:19:00,76.7,62.2,29.40,NE,47,0.0,0.0,61,0.00,CLR,,0.00,WeatherDisplay:10.37,2013-06-04 23:19:00,
2013-06-04 19:24:00,76.7,62.7,29.40,NE,47,0.0,0.0,62,0.00,CLR,,0.00,WeatherDisplay:10.37,2013-06-04 23:24:00,
2013-06-04 19:29:00,76.7,62.7,29.39,NE,47,0.0,0.0,62,0.00,CLR,,0.00,WeatherDisplay:10.37,2013-06-04 23:29:00,
2013-06-04 19:34:00,76.7,62.2,29.39,NE,47,0.0,0.0,61,0.00,CLR,,0.00,WeatherDisplay:10.37,2013-06-04 23:34:00,
2013-06-04 19:39:00,76.5,62.5,29.39,NE,47,0.0,0.0,62,0.00,CLR,,0.00,WeatherDisplay:10.37,2013-06-04 23:39:00,
2013-06-04 19:44:00,76.1,63.5,29.40,NE,47,0.0,0.0,65,0.00,CLR,,0.00,WeatherDisplay:10.37,2013-06-04 23:44:00,
2013-06-04 19:49:00,75.4,63.2,29.40,NE,47,0.0,0.0,66,0.00,CLR,,0.00,WeatherDisplay:10.37,2013-06-04 23:49:00,
2013-06-04 19:54:00,75.1,63.8,29.40,NE,47,0.0,0.0,68,0.00,CLR,,0.00,WeatherDisplay:10.37,2013-06-04 23:54:00,
2013-06-04 19:59:00,74.7,63.9,29.40,NE,47,0.0,0.0,69,0.00,CLR,,0.00,WeatherDisplay:10.37,2013-06-04 23:59:00,
2013-06-04 20:04:00,74.0,63.6,29.40,NE,47,0.0,0.0,70,0.00,CLR,,0.00,WeatherDisplay:10.37,2013-06-05 00:04:00,
2013-06-04 20:09:00,73.7,63.7,29.40,NE,47,0.0,0.0,71,0.00,CLR,,0.00,WeatherDisplay:10.37,2013-06-05 00:09:00,
2013-06-04 20:14:00,73.2,63.6,29.41,NE,47,0.0,0.0,72,0.00,CLR,,0.00,WeatherDisplay:10.37,2013-06-05 00:14:00,
2013-06-04 20:19:00,72.7,63.5,29.41,NE,47,0.0,0.0,73,0.00,CLR,,0.00,WeatherDisplay:10.37,2013-06-05 00:19:00,
2013-06-04 20:24:00,72.3,63.2,29.41,NE,47,0.0,0.0,73,0.00,CLR,,0.00,WeatherDisplay:10.37,2013-06-05 00:24:00,
2013-06-04 20:29:00,72.0,63.3,29.41,NE,47,0.0,0.0,74,0.00,CLR,,0.00,WeatherDisplay:10.37,2013-06-05 00:29:00,
2013-06-04 20:34:00,71.6,63.3,29.41,NE,47,0.0,0.0,75,0.00,CLR,,0.00,WeatherDisplay:10.37,2013-06-05 00:34:00,
2013-06-04 20:39:00,71.1,63.1,29.41,NE,47,0.0,0.0,76,0.00,CLR,,0.00,WeatherDisplay:10.37,2013-06-05 00:39:00,
2013-06-04 20:44:00,70.8,62.9,29.42,NE,47,0.0,0.0,76,0.00,CLR,,0.00,WeatherDisplay:10.37,2013-06-05 00:44:00,
2013-06-04 20:49:00,70.3,62.7,29.42,NE,47,0.0,0.0,77,0.00,CLR,,0.00,WeatherDisplay:10.37,2013-06-05 00:49:00,
2013-06-04 20:54:00,69.9,62.7,29.42,NE,47,0.0,0.0,78,0.00,CLR,,0.00,WeatherDisplay:10.37,2013-06-05 00:54:00,
2013-06-04 20:59:00,69.6,62.4,29.43,NE,47,0.0,0.0,78,0.00,CLR,,0.00,WeatherDisplay:10.37,2013-06-05 00:59:00,
2013-06-04 21:04:00,69.4,62.2,29.43,NE,47,0.0,0.0,78,0.00,CLR,,0.00,WeatherDisplay:10.37,2013-06-05 01:04:00,
2013-06-04 21:09:00,69.3,62.5,29.43,NE,47,0.0,0.0,79,0.00,CLR,,0.00,WeatherDisplay:10.37,2013-06-05 01:09:00,
2013-06-04 21:14:00,69.1,62.7,29.43,NE,47,0.0,0.0,80,0.00,CLR,,0.00,WeatherDisplay:10.37,2013-06-05 01:14:00,
2013-06-04 21:19:00,69.1,62.7,29.43,NE,47,0.0,0.0,80,0.00,CLR,,0.00,WeatherDisplay:10.37,2013-06-05 01:19:00,
2013-06-04 21:24:00,69.1,63.0,29.43,NE,47,0.0,0.0,81,0.00,CLR,,0.00,WeatherDisplay:10.37,2013-06-05 01:24:00,
2013-06-04 21:29:00,69.1,63.0,29.44,NE,47,0.0,0.0,81,0.00,CLR,,0.00,WeatherDisplay:10.37,2013-06-05 01:29:00,
2013-06-04 21:34:00,69.1,63.0,29.44,NE,47,0.0,0.0,81,0.00,CLR,,0.00,WeatherDisplay:10.37,2013-06-05 01:34:00,
2013-06-04 21:39:00,69.1,62.3,29.44,NE,47,3.5,0.0,79,0.00,CLR,,0.00,WeatherDisplay:10.37,2013-06-05 01:39:00,
2013-06-04 21:44:00,69.3,61.4,29.44,NE,47,0.0,0.0,76,0.00,CLR,,0.00,WeatherDisplay:10.37,2013-06-05 01:44:00,
2013-06-04 21:49:00,69.6,61.3,29.44,NE,47,0.0,0.0,75,0.00,CLR,,0.00,WeatherDisplay:10.37,2013-06-05 01:49:00,
2013-06-04 21:54:00,69.9,61.2,29.44,NE,35,0.0,0.0,74,0.00,CLR,,0.00,WeatherDisplay:10.37,2013-06-05 01:54:00,
2013-06-04 21:59:00,70.1,61.0,29.44,NE,35,0.0,0.0,73,0.00,CLR,,0.00,WeatherDisplay:10.37,2013-06-05 01:59:00,
2013-06-04 22:04:00,70.1,61.0,29.44,NE,35,0.0,0.0,73,0.00,CLR,,0.00,WeatherDisplay:10.37,2013-06-05 02:04:00,
2013-06-04 22:09:00,70.4,62.8,29.44,NE,35,0.0,0.0,77,0.00,CLR,,0.00,WeatherDisplay:10.37,2013-06-05 02:09:00,
2013-06-04 22:14:00,70.3,62.4,29.44,NE,35,0.0,0.0,76,0.00,CLR,,0.00,WeatherDisplay:10.37,2013-06-05 02:14:00,
2013-06-04 22:19:00,70.1,62.2,29.44,NE,35,0.0,0.0,76,0.00,CLR,,0.00,WeatherDisplay:10.37,2013-06-05 02:19:00,
2013-06-04 22:24:00,70.1,61.8,29.44,NE,35,0.0,0.0,75,0.00,CLR,,0.00,WeatherDisplay:10.37,2013-06-05 02:24:00,
2013-06-04 22:29:00,70.1,62.6,29.44,NE,35,0.0,0.0,77,0.00,CLR,,0.00,WeatherDisplay:10.37,2013-06-05 02:29:00,
2013-06-04 22:34:00,69.9,62.7,29.44,NE,35,0.0,0.0,78,0.00,CLR,,0.00,WeatherDisplay:10.37,2013-06-05 02:34:00,
2013-06-04 22:39:00,69.8,63.0,29.44,NE,35,0.0,0.0,79,0.00,CLR,,0.00,WeatherDisplay:10.37,2013-06-05 02:39:00,
2013-06-04 22:44:00,69.4,62.2,29.44,NE,35,0.0,0.0,78,0.00,CLR,,0.00,WeatherDisplay:10.37,2013-06-05 02:44:00,
2013-06-04 22:49:00,69.4,62.6,29.44,NE,35,0.0,0.0,79,0.00,CLR,,0.00,WeatherDisplay:10.37,2013-06-05 02:49:00,
2013-06-04 22:54:00,69.3,62.5,29.44,NE,35,0.0,0.0,79,0.00,CLR,,0.00,WeatherDisplay:10.37,2013-06-05 02:54:00,
2013-06-04 22:59:00,69.1,62.3,29.45,NE,35,0.0,0.0,79,0.00,CLR,,0.00,WeatherDisplay:10.37,2013-06-05 02:59:00,
2013-06-04 23:04:00,68.9,61.8,29.45,NE,35,0.0,0.0,78,0.00,CLR,,0.00,WeatherDisplay:10.37,2013-06-05 03:04:00,
2013-06-04 23:09:00,68.9,61.8,29.45,NE,35,0.0,0.0,78,0.00,CLR,,0.00,WeatherDisplay:10.37,2013-06-05 03:09:00,
2013-06-04 23:14:00,68.9,62.5,29.46,NE,35,0.0,0.0,80,0.00,CLR,,0.00,WeatherDisplay:10.37,2013-06-05 03:14:00,
2013-06-04 23:19:00,68.9,62.8,29.46,NE,35,0.0,0.0,81,0.00,CLR,,0.00,WeatherDisplay:10.37,2013-06-05 03:19:00,
2013-06-04 23:24:00,68.8,62.4,29.46,NE,35,0.0,0.0,80,0.00,CLR,,0.00,WeatherDisplay:10.37,2013-06-05 03:24:00,
2013-06-04 23:29:00,68.8,62.7,29.46,NE,35,0.0,0.0,81,0.00,CLR,,0.00,WeatherDisplay:10.37,2013-06-05 03:29:00,
2013-06-04 23:34:00,68.4,62.3,29.46,NE,35,0.0,0.0,81,0.00,CLR,,0.00,WeatherDisplay:10.37,2013-06-05 03:34:00,
2013-06-04 23:39:00,68.3,62.2,29.46,NE,35,0.0,0.0,81,0.00,CLR,,0.00,WeatherDisplay:10.37,2013-06-05 03:39:00,
2013-06-04 23:44:00,68.1,61.7,29.46,NE,35,0.0,0.0,80,0.00,CLR,,0.00,WeatherDisplay:10.37,2013-06-05 03:44:00,
2013-06-04 23:49:00,68.1,62.0,29.46,NE,35,0.0,0.0,81,0.00,CLR,,0.00,WeatherDisplay:10.37,2013-06-05 03:49:00,
2013-06-04 23:54:00,68.1,61.7,29.46,NE,35,0.0,0.0,80,0.00,CLR,,0.00,WeatherDisplay:10.37,2013-06-05 03:54:00,
2013-06-04 23:59:00,68.1,61.7,29.46,NE,35,0.0,0.0,80,0.00,CLR,,0.00,WeatherDisplay:10.37,2013-06-05 03:59:00,